createdAt,value
2022-08-11T00:00:08.837Z,0.50
2022-08-11T00:01:38.459Z,1.00
2022-08-11T00:02:54.344Z,0.60
2022-08-11T00:04:05.542Z,0.90
2022-08-11T00:05:23.059Z,1.40
2022-08-11T00:06:41.198Z,0.50
2022-08-11T00:07:51.268Z,0.80
2022-08-11T00:08:59.974Z,0.70
2022-08-11T00:10:12.885Z,0.70
2022-08-11T00:11:20.813Z,1.10
2022-08-11T00:13:40.104Z,0.70
2022-08-11T00:15:00.247Z,0.50
2022-08-11T00:16:23.884Z,0.50
2022-08-11T00:17:34.981Z,0.60
2022-08-11T00:18:51.096Z,0.40
2022-08-11T00:20:16.213Z,1.30
2022-08-11T00:21:32.528Z,0.60
2022-08-11T00:23:10.387Z,1.30
2022-08-11T00:24:18.257Z,1.10
2022-08-11T00:25:26.001Z,0.40
2022-08-11T00:26:33.462Z,0.40
2022-08-11T00:27:42.207Z,0.80
2022-08-11T00:28:53.746Z,0.70
2022-08-11T00:30:06.160Z,0.20
2022-08-11T00:31:30.772Z,0.30
2022-08-11T00:32:42.701Z,0.50
2022-08-11T00:33:51.148Z,0.70
2022-08-11T00:35:51.968Z,0.50
2022-08-11T00:37:03.922Z,0.60
2022-08-11T00:38:11.624Z,0.60
2022-08-11T00:39:20.807Z,0.30
2022-08-11T00:41:03.142Z,0.40
2022-08-11T00:42:32.599Z,0.80
2022-08-11T00:44:16.741Z,0.40
2022-08-11T00:46:09.635Z,0.70
2022-08-11T00:48:00.212Z,0.40
2022-08-11T00:49:42.671Z,0.30
2022-08-11T00:51:13.886Z,0.90
2022-08-11T00:52:53.533Z,0.20
2022-08-11T00:54:34.138Z,0.60
2022-08-11T00:56:18.117Z,0.40
2022-08-11T00:58:03.169Z,0.50
2022-08-11T00:59:45.690Z,0.70
2022-08-11T01:01:27.644Z,0.50
2022-08-11T01:03:02.723Z,0.40
2022-08-11T01:04:51.182Z,0.30
2022-08-11T01:06:33.482Z,0.30
2022-08-11T01:08:03.539Z,0.60
2022-08-11T01:09:45.862Z,0.80
2022-08-11T01:11:20.059Z,0.60
2022-08-11T01:13:20.787Z,0.40
2022-08-11T01:14:53.972Z,0.90
2022-08-11T01:16:32.515Z,0.40
2022-08-11T01:18:15.007Z,0.50
2022-08-11T01:20:48.123Z,0.50
2022-08-11T01:21:21.793Z,0.70
2022-08-11T01:23:07.285Z,0.80
2022-08-11T01:24:37.227Z,0.50
2022-08-11T01:26:21.786Z,0.90
2022-08-11T01:27:53.913Z,0.40
2022-08-11T01:29:30.730Z,0.70
2022-08-11T01:30:46.151Z,0.70
2022-08-11T01:32:31.012Z,0.70
2022-08-11T01:34:16.403Z,0.90
2022-08-11T01:35:43.481Z,0.60
2022-08-11T01:37:09.569Z,0.60
2022-08-11T01:38:44.406Z,0.80
2022-08-11T01:40:10.438Z,0.40
2022-08-11T01:42:04.366Z,0.50
2022-08-11T01:43:41.397Z,0.80
2022-08-11T01:44:55.352Z,0.50
2022-08-11T01:46:33.426Z,0.50
2022-08-11T01:47:58.847Z,0.50
2022-08-11T01:50:06.885Z,0.80
2022-08-11T01:51:19.670Z,1.00
2022-08-11T01:52:42.914Z,0.80
2022-08-11T01:54:01.123Z,0.60
2022-08-11T01:55:49.769Z,0.80
2022-08-11T01:57:01.440Z,0.50
2022-08-11T01:58:43.228Z,0.50
2022-08-11T02:00:03.466Z,0.60
2022-08-11T02:01:16.379Z,0.70
2022-08-11T02:03:13.147Z,0.70
2022-08-11T02:04:59.610Z,1.40
2022-08-11T02:06:55.313Z,0.50
2022-08-11T02:08:18.933Z,0.80
2022-08-11T02:09:49.739Z,1.40
2022-08-11T02:11:23.424Z,1.30
2022-08-11T02:12:53.886Z,0.70
2022-08-11T02:14:22.064Z,0.90
2022-08-11T02:15:44.153Z,0.80
2022-08-11T02:17:18.370Z,0.90
2022-08-11T02:19:22.100Z,0.90
2022-08-11T02:21:06.600Z,0.50
2022-08-11T02:24:05.578Z,1.30
2022-08-11T02:25:11.826Z,0.70
2022-08-11T02:26:46.981Z,0.80
2022-08-11T02:28:18.978Z,1.00
2022-08-11T02:29:51.296Z,1.10
2022-08-11T02:32:24.342Z,1.00
2022-08-11T02:33:27.551Z,1.00
2022-08-11T02:35:14.937Z,1.00
2022-08-11T02:36:45.257Z,1.00
2022-08-11T02:38:03.410Z,0.90
2022-08-11T02:39:17.098Z,0.70
2022-08-11T02:40:59.759Z,1.00
2022-08-11T02:42:32.817Z,1.60
2022-08-11T02:43:55.679Z,0.70
2022-08-11T02:45:31.467Z,1.40
2022-08-11T02:47:23.218Z,0.80
2022-08-11T02:49:16.874Z,0.50
2022-08-11T02:50:27.195Z,1.00
2022-08-11T02:53:17.401Z,1.10
2022-08-11T02:54:56.440Z,0.60
2022-08-11T02:56:17.723Z,0.70
2022-08-11T02:57:35.406Z,1.10
2022-08-11T02:59:36.163Z,1.50
2022-08-11T03:01:14.751Z,1.00
2022-08-11T03:02:59.193Z,1.10
2022-08-11T03:04:11.210Z,0.50
2022-08-11T03:05:47.806Z,0.50
2022-08-11T03:09:07.090Z,1.00
2022-08-11T03:10:33.002Z,0.80
2022-08-11T03:12:27.131Z,0.90
2022-08-11T03:13:53.270Z,1.00
2022-08-11T03:15:41.910Z,1.00
2022-08-11T03:17:04.700Z,0.90
2022-08-11T03:18:36.399Z,1.50
2022-08-11T03:20:01.217Z,1.00
2022-08-11T03:21:20.426Z,0.90
2022-08-11T03:23:04.488Z,1.30
2022-08-11T03:24:51.700Z,0.80
2022-08-11T03:26:18.476Z,1.90
2022-08-11T03:28:02.635Z,1.00
2022-08-11T03:29:46.517Z,1.10
2022-08-11T03:31:28.744Z,0.80
2022-08-11T03:33:09.881Z,0.80
2022-08-11T03:34:26.368Z,1.10
2022-08-11T03:35:39.274Z,0.90
2022-08-11T03:37:41.960Z,0.90
2022-08-11T03:39:26.776Z,1.80
2022-08-11T03:41:54.726Z,0.70
2022-08-11T03:43:02.551Z,1.70
2022-08-11T03:44:45.896Z,0.80
2022-08-11T03:46:06.478Z,1.10
2022-08-11T03:47:52.338Z,1.10
2022-08-11T03:49:27.499Z,1.40
2022-08-11T03:50:59.795Z,1.20
2022-08-11T03:52:46.693Z,1.30
2022-08-11T03:54:20.785Z,1.80
2022-08-11T03:55:56.501Z,5.80
2022-08-11T03:57:44.155Z,2.00
2022-08-11T03:59:22.050Z,1.40
2022-08-11T04:00:57.097Z,1.40
2022-08-11T04:02:22.277Z,0.90
2022-08-11T04:03:45.320Z,0.80
2022-08-11T04:05:27.218Z,0.90
2022-08-11T04:07:08.371Z,1.30
2022-08-11T04:08:20.310Z,1.00
2022-08-11T04:09:49.506Z,1.10
2022-08-11T04:11:05.159Z,1.50
2022-08-11T04:14:51.152Z,1.70
2022-08-11T04:16:33.777Z,1.10
2022-08-11T04:18:13.407Z,1.60
2022-08-11T04:19:53.025Z,1.20
2022-08-11T04:21:21.596Z,1.80
2022-08-11T04:22:53.993Z,1.50
2022-08-11T04:24:38.652Z,1.40
2022-08-11T04:26:27.585Z,1.30
2022-08-11T04:28:28.638Z,1.20
2022-08-11T04:30:05.836Z,1.40
2022-08-11T04:31:51.639Z,1.10
2022-08-11T04:33:37.269Z,1.30
2022-08-11T04:35:13.817Z,1.10
2022-08-11T04:37:11.270Z,2.10
2022-08-11T04:38:45.562Z,1.60
2022-08-11T04:40:28.512Z,1.60
2022-08-11T04:42:15.800Z,1.40
2022-08-11T04:44:06.435Z,1.20
2022-08-11T04:45:53.692Z,1.80
2022-08-11T04:48:03.973Z,1.00
2022-08-11T04:51:37.050Z,1.20
2022-08-11T04:53:30.508Z,1.10
2022-08-11T04:55:33.379Z,1.70
2022-08-11T04:57:06.372Z,1.10
2022-08-11T04:58:56.556Z,1.40
2022-08-11T05:00:29.108Z,1.10
2022-08-11T05:02:18.726Z,1.20
2022-08-11T05:03:38.198Z,1.30
2022-08-11T05:05:23.997Z,1.30
2022-08-11T05:07:00.653Z,1.40
2022-08-11T05:08:26.352Z,2.30
2022-08-11T05:09:48.767Z,1.40
2022-08-11T05:11:15.738Z,1.40
2022-08-11T05:12:47.707Z,1.10
2022-08-11T05:14:39.827Z,1.10
2022-08-11T05:16:11.630Z,0.90
2022-08-11T05:18:01.086Z,1.20
2022-08-11T05:19:34.182Z,1.00
2022-08-11T05:21:07.674Z,0.90
2022-08-11T05:22:37.645Z,1.00
2022-08-11T05:24:10.042Z,1.40
2022-08-11T05:26:45.430Z,1.60
2022-08-11T05:27:47.558Z,0.90
2022-08-11T05:29:22.928Z,1.80
2022-08-11T05:30:50.848Z,1.10
2022-08-11T05:32:20.376Z,1.40
2022-08-11T05:34:06.838Z,0.90
2022-08-11T05:35:28.338Z,1.20
2022-08-11T05:36:56.412Z,0.80
2022-08-11T05:38:39.350Z,1.10
2022-08-11T05:40:11.050Z,1.30
2022-08-11T05:41:39.370Z,1.60
2022-08-11T05:43:22.511Z,1.80
2022-08-11T05:44:49.925Z,0.80
2022-08-11T05:46:29.337Z,1.30
2022-08-11T05:47:56.838Z,1.70
2022-08-11T05:49:23.426Z,1.00
2022-08-11T05:50:51.086Z,1.40
2022-08-11T05:52:25.520Z,0.80
2022-08-11T05:54:28.928Z,2.10
2022-08-11T05:56:02.787Z,1.60
2022-08-11T05:57:48.316Z,1.10
2022-08-11T05:58:43.226Z,1.20
2022-08-11T05:59:52.174Z,1.30
2022-08-11T06:01:07.001Z,1.20
2022-08-11T06:02:17.222Z,1.40
2022-08-11T06:03:30.701Z,1.60
2022-08-11T06:04:41.740Z,1.70
2022-08-11T06:05:52.312Z,1.30
2022-08-11T06:07:10.315Z,1.30
2022-08-11T06:08:19.197Z,1.60
2022-08-11T06:09:52.749Z,1.20
2022-08-11T06:11:05.378Z,1.50
2022-08-11T06:12:19.946Z,1.80
2022-08-11T06:13:29.995Z,0.90
2022-08-11T06:14:44.642Z,1.40
2022-08-11T06:15:57.618Z,1.40
2022-08-11T06:17:06.827Z,1.00
2022-08-11T06:18:16.427Z,1.10
2022-08-11T06:19:26.099Z,1.10
2022-08-11T06:20:38.737Z,1.10
2022-08-11T06:21:48.810Z,1.10
2022-08-11T06:23:09.069Z,1.30
2022-08-11T06:24:17.625Z,0.90
2022-08-11T06:25:33.604Z,1.80
2022-08-11T06:27:10.700Z,1.00
2022-08-11T06:28:14.969Z,1.10
2022-08-11T06:29:36.893Z,1.10
2022-08-11T06:30:47.769Z,1.50
2022-08-11T06:32:05.167Z,1.80
2022-08-11T06:33:14.768Z,1.20
2022-08-11T06:34:36.746Z,0.70
2022-08-11T06:36:07.376Z,1.10
2022-08-11T06:37:48.814Z,0.90
2022-08-11T06:39:24.819Z,0.50
2022-08-11T06:41:17.747Z,1.00
2022-08-11T06:42:46.742Z,0.60
2022-08-11T06:44:19.280Z,1.00
2022-08-11T06:45:50.602Z,0.70
2022-08-11T06:47:02.256Z,0.50
2022-08-11T06:48:15.058Z,0.90
2022-08-11T06:49:48.422Z,1.10
2022-08-11T06:51:21.628Z,0.80
2022-08-11T06:52:37.857Z,1.40
2022-08-11T06:54:05.653Z,1.40
2022-08-11T06:55:56.952Z,1.30
2022-08-11T06:57:30.898Z,0.80
2022-08-11T06:58:59.307Z,0.90
2022-08-11T07:00:28.962Z,1.30
2022-08-11T07:01:57.951Z,0.90
2022-08-11T07:03:17.351Z,1.10
2022-08-11T07:04:52.739Z,1.20
2022-08-11T07:07:11.085Z,1.20
2022-08-11T07:08:49.177Z,1.10
2022-08-11T07:10:24.628Z,0.90
2022-08-11T07:12:00.812Z,1.50
2022-08-11T07:13:44.346Z,1.30
2022-08-11T07:15:21.159Z,1.30
2022-08-11T07:16:31.431Z,1.10
2022-08-11T07:17:52.099Z,1.10
2022-08-11T07:19:28.146Z,2.50
2022-08-11T07:21:01.869Z,1.20
2022-08-11T07:22:35.886Z,1.10
2022-08-11T07:24:05.095Z,1.10
2022-08-11T07:25:38.041Z,1.50
2022-08-11T07:27:08.917Z,1.20
2022-08-11T07:28:50.803Z,2.60
2022-08-11T07:30:00.623Z,1.30
2022-08-11T07:31:15.589Z,1.10
2022-08-11T07:32:32.074Z,1.30
2022-08-11T07:34:07.350Z,1.10
2022-08-11T07:35:41.105Z,2.10
2022-08-11T07:36:57.925Z,1.20
2022-08-11T07:38:13.277Z,1.30
2022-08-11T07:39:31.232Z,1.30
2022-08-11T07:40:43.526Z,0.90
2022-08-11T07:41:52.944Z,1.20
2022-08-11T07:43:01.652Z,1.40
2022-08-11T07:44:13.192Z,1.20
2022-08-11T07:45:43.339Z,1.10
2022-08-11T07:47:14.217Z,1.10
2022-08-11T07:48:42.848Z,1.70
2022-08-11T07:50:14.302Z,1.20
2022-08-11T07:51:42.103Z,1.60
2022-08-11T07:52:52.884Z,1.50
2022-08-11T07:54:17.120Z,0.90
2022-08-11T07:55:51.335Z,1.60
2022-08-11T07:57:08.886Z,1.30
2022-08-11T07:58:45.811Z,1.50
2022-08-11T08:00:23.119Z,1.80
2022-08-11T08:01:59.022Z,1.20
2022-08-11T08:03:29.594Z,1.40
2022-08-11T08:05:00.820Z,1.20
2022-08-11T08:06:36.189Z,2.00
2022-08-11T08:08:09.564Z,1.90
2022-08-11T08:09:37.340Z,1.50
2022-08-11T08:12:34.464Z,3.10
2022-08-11T08:14:04.679Z,1.50
2022-08-11T08:15:34.188Z,2.00
2022-08-11T08:17:00.349Z,1.50
2022-08-11T08:18:26.617Z,1.20
2022-08-11T08:19:36.529Z,1.40
2022-08-11T08:20:48.489Z,1.50
2022-08-11T08:22:07.100Z,1.80
2022-08-11T08:23:36.365Z,2.20
2022-08-11T08:24:46.146Z,1.50
2022-08-11T08:25:59.027Z,1.00
2022-08-11T08:27:07.272Z,2.40
2022-08-11T08:28:21.344Z,1.90
2022-08-11T08:29:53.224Z,1.80
2022-08-11T08:31:03.268Z,2.30
2022-08-11T08:32:13.758Z,1.40
2022-08-11T08:33:29.465Z,1.20
2022-08-11T08:34:41.535Z,1.40
2022-08-11T08:35:54.344Z,1.80
2022-08-11T08:37:15.726Z,1.30
2022-08-11T08:38:35.533Z,1.30
2022-08-11T08:39:42.880Z,2.10
2022-08-11T08:40:50.567Z,1.20
2022-08-11T08:42:00.626Z,1.30
2022-08-11T08:43:11.972Z,1.80
2022-08-11T08:44:40.821Z,2.10
2022-08-11T08:45:50.838Z,1.20
2022-08-11T08:47:01.125Z,1.10
2022-08-11T08:48:23.002Z,2.00
2022-08-11T08:49:40.498Z,1.30
2022-08-11T08:51:12.832Z,2.50
2022-08-11T08:52:42.730Z,1.50
2022-08-11T08:53:58.378Z,1.40
2022-08-11T08:55:07.953Z,1.70
2022-08-11T08:56:17.964Z,1.50
2022-08-11T08:57:31.451Z,1.90
2022-08-11T08:58:51.579Z,2.40
2022-08-11T08:59:59.511Z,1.80
2022-08-11T09:01:08.564Z,1.80
2022-08-11T09:02:16.108Z,1.70
2022-08-11T09:04:06.661Z,1.60
2022-08-11T09:04:56.716Z,1.80
2022-08-11T09:06:05.950Z,1.70
2022-08-11T09:08:25.278Z,1.50
2022-08-11T09:09:35.327Z,1.80
2022-08-11T09:10:45.833Z,1.70
2022-08-11T09:11:54.859Z,2.00
2022-08-11T09:13:02.546Z,1.60
2022-08-11T09:14:14.917Z,2.00
2022-08-11T09:15:23.673Z,1.70
2022-08-11T09:16:30.543Z,1.10
2022-08-11T09:17:48.656Z,1.50
2022-08-11T09:18:57.542Z,1.20
2022-08-11T09:20:14.272Z,1.80
2022-08-11T09:21:42.506Z,1.70
2022-08-11T09:25:06.507Z,1.50
2022-08-11T09:26:37.127Z,1.10
2022-08-11T09:27:50.327Z,1.10
2022-08-11T09:29:03.370Z,1.50
2022-08-11T09:30:12.370Z,1.40
2022-08-11T09:31:21.606Z,1.50
2022-08-11T09:32:30.485Z,1.10
2022-08-11T09:33:40.707Z,1.00
2022-08-11T09:34:54.233Z,1.30
2022-08-11T09:36:22.365Z,1.40
2022-08-11T09:37:55.331Z,1.80
2022-08-11T09:39:23.656Z,1.60
2022-08-11T09:40:31.441Z,1.40
2022-08-11T09:42:01.132Z,1.60
2022-08-11T09:43:30.828Z,1.20
2022-08-11T09:44:52.600Z,1.50
2022-08-11T09:46:00.347Z,2.40
2022-08-11T09:47:17.432Z,1.90
2022-08-11T09:48:34.554Z,1.40
2022-08-11T09:49:41.861Z,1.40
2022-08-11T09:50:55.904Z,2.20
2022-08-11T09:52:05.403Z,1.70
2022-08-11T09:53:36.069Z,1.80
2022-08-11T09:54:49.798Z,1.20
2022-08-11T09:55:56.949Z,1.30
2022-08-11T09:57:23.607Z,1.40
2022-08-11T09:58:41.998Z,1.60
2022-08-11T09:59:52.231Z,2.00
2022-08-11T10:01:31.065Z,1.50
2022-08-11T10:02:40.596Z,1.40
2022-08-11T10:03:48.973Z,1.50
2022-08-11T10:05:22.714Z,1.30
2022-08-11T10:06:53.914Z,1.90
2022-08-11T10:08:02.790Z,2.00
2022-08-11T10:09:10.842Z,1.40
2022-08-11T10:10:24.539Z,2.10
2022-08-11T10:11:32.093Z,2.30
2022-08-11T10:12:42.668Z,1.50
2022-08-11T10:14:34.582Z,1.10
2022-08-11T10:15:39.931Z,1.30
2022-08-11T10:17:10.140Z,1.10
2022-08-11T10:18:40.367Z,2.20
2022-08-11T10:20:03.817Z,1.60
2022-08-11T10:21:20.375Z,2.70
2022-08-11T10:22:45.727Z,2.40
2022-08-11T10:24:24.961Z,1.90
2022-08-11T10:25:51.800Z,1.90
2022-08-11T10:27:28.659Z,1.60
2022-08-11T10:29:11.896Z,1.30
2022-08-11T10:30:42.326Z,1.40
2022-08-11T10:32:13.447Z,1.80
2022-08-11T10:33:59.497Z,1.60
2022-08-11T10:35:11.357Z,1.80
2022-08-11T10:36:21.955Z,2.80
2022-08-11T10:38:08.395Z,1.20
2022-08-11T10:39:03.869Z,1.50
2022-08-11T10:40:12.633Z,1.70
2022-08-11T10:42:03.469Z,1.50
2022-08-11T10:44:02.123Z,1.60
2022-08-11T10:44:46.679Z,1.40
2022-08-11T10:46:13.450Z,1.80
2022-08-11T10:47:46.792Z,1.60
2022-08-11T10:48:58.757Z,1.60
2022-08-11T10:50:28.306Z,2.40
2022-08-11T10:51:54.352Z,2.50
2022-08-11T10:53:25.677Z,2.50
2022-08-11T10:54:54.455Z,1.70
2022-08-11T10:56:25.019Z,1.50
2022-08-11T10:58:05.045Z,1.90
2022-08-11T10:59:17.481Z,1.50
2022-08-11T11:00:26.072Z,1.80
2022-08-11T11:01:36.508Z,2.50
2022-08-11T11:03:23.112Z,2.40
2022-08-11T11:04:50.939Z,1.50
2022-08-11T11:06:51.095Z,1.40
2022-08-11T11:08:37.296Z,1.90
2022-08-11T11:09:57.184Z,1.50
2022-08-11T11:11:07.421Z,1.80
2022-08-11T11:13:08.298Z,2.10
2022-08-11T11:14:45.819Z,2.20
2022-08-11T11:16:19.002Z,2.50
2022-08-11T11:17:54.306Z,2.60
2022-08-11T11:19:26.826Z,1.10
2022-08-11T11:20:49.771Z,1.70
2022-08-11T11:22:21.168Z,1.90
2022-08-11T11:23:51.730Z,1.40
2022-08-11T11:25:24.415Z,2.20
2022-08-11T11:27:09.346Z,2.00
2022-08-11T11:29:04.324Z,1.60
2022-08-11T11:30:13.587Z,1.70
2022-08-11T11:31:51.711Z,1.60
2022-08-11T11:33:16.903Z,1.80
2022-08-11T11:34:52.911Z,1.30
2022-08-11T11:36:38.676Z,2.70
2022-08-11T11:38:04.124Z,1.50
2022-08-11T11:39:16.044Z,2.40
2022-08-11T11:40:30.629Z,2.40
2022-08-11T11:41:42.477Z,2.30
2022-08-11T11:42:53.582Z,1.70
2022-08-11T11:44:01.501Z,2.70
2022-08-11T11:45:10.381Z,1.40
2022-08-11T11:46:38.564Z,1.10
2022-08-11T11:47:46.913Z,1.30
2022-08-11T11:49:16.846Z,1.80
2022-08-11T11:50:38.679Z,1.50
2022-08-11T11:51:54.040Z,3.20
2022-08-11T11:53:04.019Z,1.60
2022-08-11T11:54:11.640Z,1.60
2022-08-11T11:56:28.219Z,2.10
2022-08-11T11:58:02.886Z,2.80
2022-08-11T11:59:30.052Z,3.20
2022-08-11T12:00:55.897Z,1.50
2022-08-11T12:02:11.795Z,2.00
2022-08-11T12:03:23.575Z,2.30
2022-08-11T12:04:31.196Z,2.30
2022-08-11T12:05:39.092Z,2.30
2022-08-11T12:06:48.482Z,1.60
2022-08-11T12:09:28.068Z,1.80
2022-08-11T12:10:35.929Z,1.30
2022-08-11T12:12:02.612Z,1.80
2022-08-11T12:13:31.485Z,1.80
2022-08-11T12:14:39.225Z,1.40
2022-08-11T12:16:31.969Z,1.70
2022-08-11T12:17:17.101Z,1.60
2022-08-11T12:18:26.232Z,2.00
2022-08-11T12:19:35.695Z,2.20
2022-08-11T12:20:43.923Z,2.00
2022-08-11T12:22:12.745Z,2.00
2022-08-11T12:23:41.707Z,2.40
2022-08-11T12:25:09.756Z,1.90
2022-08-11T12:26:38.945Z,1.70
2022-08-11T12:27:46.473Z,1.50
2022-08-11T12:28:55.217Z,2.30
2022-08-11T12:30:13.680Z,1.90
2022-08-11T12:31:24.486Z,3.20
2022-08-11T12:32:35.285Z,1.70
2022-08-11T12:33:45.950Z,2.00
2022-08-11T12:34:53.699Z,1.60
2022-08-11T12:36:03.580Z,2.10
2022-08-11T12:37:14.298Z,2.70
2022-08-11T12:38:29.786Z,1.60
2022-08-11T12:40:42.728Z,2.10
2022-08-11T12:42:02.495Z,2.40
2022-08-11T12:43:37.397Z,1.50
2022-08-11T12:45:07.872Z,2.30
2022-08-11T12:46:43.997Z,1.90
2022-08-11T12:48:57.755Z,2.10
2022-08-11T12:50:04.227Z,1.60
2022-08-11T12:52:11.502Z,1.90
2022-08-11T12:53:11.569Z,1.70
2022-08-11T12:54:24.559Z,1.60
2022-08-11T12:56:07.450Z,1.70
2022-08-11T12:58:03.674Z,1.70
2022-08-11T12:59:30.494Z,1.80
2022-08-11T13:00:58.424Z,1.60
2022-08-11T13:02:27.240Z,2.40
2022-08-11T13:03:58.691Z,2.80
2022-08-11T13:05:07.799Z,1.70
2022-08-11T13:06:15.438Z,2.20
2022-08-11T13:07:27.266Z,3.30
2022-08-11T13:09:00.924Z,2.00
2022-08-11T13:10:16.919Z,1.60
2022-08-11T13:11:55.871Z,2.50
2022-08-11T13:13:53.852Z,2.00
2022-08-11T13:14:40.121Z,3.10
2022-08-11T13:15:51.001Z,2.20
2022-08-11T13:17:16.909Z,2.00
2022-08-11T13:18:25.700Z,2.10
2022-08-11T13:19:34.325Z,1.50
2022-08-11T13:20:41.430Z,2.20
2022-08-11T13:21:49.305Z,2.80
2022-08-11T13:22:57.866Z,3.30
2022-08-11T13:24:06.884Z,2.60
2022-08-11T13:25:17.275Z,2.90
2022-08-11T13:26:47.191Z,1.70
2022-08-11T13:28:01.754Z,1.70
2022-08-11T13:29:13.051Z,2.30
2022-08-11T13:30:47.341Z,2.00
2022-08-11T13:32:01.698Z,2.00
2022-08-11T13:33:09.161Z,2.70
2022-08-11T13:34:20.258Z,2.20
2022-08-11T13:35:29.205Z,2.40
2022-08-11T13:36:37.971Z,1.90
2022-08-11T13:38:19.622Z,1.90
2022-08-11T13:39:18.570Z,2.30
2022-08-11T13:40:45.774Z,2.00
2022-08-11T13:41:59.236Z,2.70
2022-08-11T13:43:07.640Z,2.80
2022-08-11T13:44:23.259Z,2.10
2022-08-11T13:45:37.578Z,2.10
2022-08-11T13:46:46.488Z,2.50
2022-08-11T13:49:10.771Z,2.40
2022-08-11T13:50:20.235Z,3.20
2022-08-11T13:51:36.894Z,1.90
2022-08-11T13:52:48.046Z,2.00
2022-08-11T13:53:59.003Z,2.20
2022-08-11T13:55:45.156Z,2.10
2022-08-11T13:56:54.313Z,2.10
2022-08-11T13:58:08.755Z,2.40
2022-08-11T13:59:29.637Z,2.50
2022-08-11T14:00:40.194Z,2.60
2022-08-11T14:02:21.812Z,2.70
2022-08-11T14:04:30.175Z,3.00
2022-08-11T14:05:16.511Z,2.50
2022-08-11T14:06:24.873Z,4.00
2022-08-11T14:08:02.511Z,3.30
2022-08-11T14:09:13.119Z,2.80
2022-08-11T14:10:22.148Z,3.30
2022-08-11T14:12:21.393Z,4.90
2022-08-11T14:13:42.434Z,3.80
2022-08-11T14:15:22.419Z,4.30
2022-08-11T14:16:35.483Z,3.60
2022-08-11T14:17:52.614Z,3.30
2022-08-11T14:19:06.884Z,3.50
2022-08-11T14:20:38.997Z,2.80
2022-08-11T14:22:07.929Z,2.40
2022-08-11T14:23:17.380Z,2.10
2022-08-11T14:24:25.231Z,2.20
2022-08-11T14:26:00.301Z,1.90
2022-08-11T14:27:03.644Z,2.10
2022-08-11T14:28:29.696Z,2.00
2022-08-11T14:29:48.858Z,2.20
2022-08-11T14:31:01.180Z,2.30
2022-08-11T14:32:12.794Z,1.80
2022-08-11T14:33:21.681Z,2.20
2022-08-11T14:34:33.525Z,2.40
2022-08-11T14:35:44.434Z,2.10
2022-08-11T14:37:01.646Z,1.90
2022-08-11T14:38:08.790Z,2.00
2022-08-11T14:39:18.480Z,2.30
2022-08-11T14:40:44.818Z,3.00
2022-08-11T14:42:14.536Z,2.10
2022-08-11T14:44:12.402Z,2.00
2022-08-11T14:45:57.831Z,2.10
2022-08-11T14:47:24.008Z,2.50
2022-08-11T14:48:34.785Z,2.10
2022-08-11T14:49:56.197Z,2.50
2022-08-11T14:51:15.535Z,3.00
2022-08-11T14:52:24.161Z,2.80
2022-08-11T14:53:31.294Z,3.00
2022-08-11T14:54:59.861Z,2.50
2022-08-11T14:56:25.472Z,2.40
2022-08-11T14:57:55.824Z,2.30
2022-08-11T14:59:05.236Z,2.10
2022-08-11T15:00:19.992Z,2.50
2022-08-11T15:01:51.839Z,2.20
2022-08-11T15:03:14.494Z,3.30
2022-08-11T15:04:34.564Z,3.10
2022-08-11T15:05:57.583Z,2.80
2022-08-11T15:07:16.247Z,2.70
2022-08-11T15:08:56.826Z,2.30
2022-08-11T15:10:13.437Z,2.20
2022-08-11T15:11:42.984Z,2.20
2022-08-11T15:12:51.417Z,2.10
2022-08-11T15:13:58.685Z,2.30
2022-08-11T15:15:29.805Z,2.00
2022-08-11T15:16:57.352Z,1.90
2022-08-11T15:19:18.117Z,2.10
2022-08-11T15:20:47.530Z,2.30
2022-08-11T15:22:14.198Z,2.30
2022-08-11T15:23:43.474Z,2.60
2022-08-11T15:24:52.456Z,2.20
2022-08-11T15:26:06.934Z,2.80
2022-08-11T15:27:40.369Z,1.60
2022-08-11T15:29:09.841Z,1.40
2022-08-11T15:30:35.741Z,1.90
2022-08-11T15:32:02.577Z,1.70
2022-08-11T15:33:32.329Z,2.00
2022-08-11T15:35:03.988Z,2.70
2022-08-11T15:36:31.992Z,2.90
2022-08-11T15:37:40.805Z,1.60
2022-08-11T15:39:31.211Z,1.60
2022-08-11T15:41:01.218Z,1.90
2022-08-11T15:42:39.033Z,1.80
2022-08-11T15:44:13.543Z,1.70
2022-08-11T15:45:44.960Z,2.00
2022-08-11T15:46:55.295Z,1.30
2022-08-11T15:48:10.863Z,1.80
2022-08-11T15:49:25.357Z,1.70
2022-08-11T15:50:58.871Z,2.40
2022-08-11T15:52:11.489Z,1.60
2022-08-11T15:53:31.750Z,1.40
2022-08-11T15:54:44.315Z,1.60
2022-08-11T15:55:52.316Z,1.50
2022-08-11T15:57:03.739Z,1.80
2022-08-11T15:58:33.072Z,1.70
2022-08-11T15:59:59.504Z,2.20
2022-08-11T16:01:27.982Z,1.90
2022-08-11T16:02:55.978Z,2.30
2022-08-11T16:04:18.329Z,1.60
2022-08-11T16:05:45.915Z,2.00
2022-08-11T16:07:14.653Z,1.90
2022-08-11T16:08:33.313Z,1.80
2022-08-11T16:09:51.845Z,2.40
2022-08-11T16:11:04.146Z,2.30
2022-08-11T16:12:33.591Z,1.40
2022-08-11T16:13:44.717Z,1.30
2022-08-11T16:15:20.965Z,2.50
2022-08-11T16:16:32.010Z,2.30
2022-08-11T16:17:55.859Z,1.80
2022-08-11T16:19:07.335Z,2.00
2022-08-11T16:20:18.435Z,1.80
2022-08-11T16:21:38.110Z,1.60
2022-08-11T16:23:00.333Z,1.90
2022-08-11T16:26:30.563Z,2.00
2022-08-11T16:27:05.883Z,1.90
2022-08-11T16:27:24.258Z,1.80
2022-08-11T16:28:33.153Z,1.60
2022-08-11T16:29:46.572Z,2.10
2022-08-11T16:30:56.240Z,2.50
2022-08-11T16:32:24.033Z,2.50
2022-08-11T16:33:49.916Z,1.60
2022-08-11T16:35:23.920Z,3.00
2022-08-11T16:36:53.822Z,2.10
2022-08-11T16:38:25.314Z,2.10
2022-08-11T16:39:37.588Z,2.60
2022-08-11T16:40:53.517Z,1.60
2022-08-11T16:43:05.250Z,1.50
2022-08-11T16:44:08.012Z,1.50
2022-08-11T16:47:08.061Z,1.30
2022-08-11T16:48:36.635Z,1.30
2022-08-11T16:49:53.258Z,0.90
2022-08-11T16:51:02.805Z,1.00
2022-08-11T16:52:14.908Z,1.40
2022-08-11T16:53:23.525Z,1.30
2022-08-11T16:54:53.088Z,1.10
2022-08-11T16:56:05.332Z,0.70
2022-08-11T16:57:46.901Z,1.60
2022-08-11T16:59:17.604Z,0.70
2022-08-11T17:00:27.525Z,1.20
2022-08-11T17:01:36.619Z,1.10
2022-08-11T17:03:15.486Z,1.20
2022-08-11T17:05:14.706Z,1.60
2022-08-11T17:06:42.054Z,0.80
2022-08-11T17:08:11.257Z,1.20
2022-08-11T17:09:41.788Z,0.90
2022-08-11T17:11:22.640Z,1.00
2022-08-11T17:12:52.953Z,0.80
2022-08-11T17:14:35.857Z,1.50
2022-08-11T17:16:09.101Z,0.80
2022-08-11T17:17:27.872Z,0.90
2022-08-11T17:18:47.061Z,1.30
2022-08-11T17:20:43.086Z,1.10
2022-08-11T17:22:07.508Z,1.10
2022-08-11T17:23:35.877Z,1.50
2022-08-11T17:24:46.543Z,3.10
2022-08-11T17:26:03.333Z,1.20
2022-08-11T17:27:17.866Z,1.90
2022-08-11T17:28:28.347Z,1.30
2022-08-11T17:29:54.557Z,1.00
2022-08-11T17:31:27.918Z,2.60
2022-08-11T17:33:08.310Z,2.00
2022-08-11T17:34:38.057Z,1.90
2022-08-11T17:35:46.233Z,1.50
2022-08-11T17:36:56.082Z,1.00
2022-08-11T17:38:08.616Z,1.50
2022-08-11T17:39:17.582Z,1.40
2022-08-11T17:40:28.013Z,1.40
2022-08-11T17:41:54.126Z,1.40
2022-08-11T17:43:24.418Z,1.60
2022-08-11T17:44:52.250Z,1.50
2022-08-11T17:46:20.635Z,1.50
2022-08-11T17:47:48.539Z,1.00
2022-08-11T17:48:58.343Z,1.40
2022-08-11T17:50:17.787Z,1.00
2022-08-11T17:51:45.961Z,1.50
2022-08-11T17:54:40.351Z,1.60
2022-08-11T17:56:10.271Z,1.10
2022-08-11T17:57:39.993Z,1.50
2022-08-11T17:59:11.310Z,1.20
2022-08-11T18:00:19.506Z,1.20
2022-08-11T18:01:29.937Z,1.10
2022-08-11T18:03:16.776Z,0.80
2022-08-11T18:04:24.871Z,1.10
2022-08-11T18:06:43.226Z,1.20
2022-08-11T18:09:42.103Z,1.20
2022-08-11T18:11:09.720Z,1.20
2022-08-11T18:12:36.380Z,1.90
2022-08-11T18:14:08.292Z,1.00
2022-08-11T18:15:38.555Z,0.60
2022-08-11T18:17:20.867Z,0.70
2022-08-11T18:18:48.632Z,0.70
2022-08-11T18:20:15.454Z,0.60
2022-08-11T18:21:42.793Z,0.40
2022-08-11T18:23:13.028Z,0.60
2022-08-11T18:24:42.413Z,0.60
2022-08-11T18:26:08.738Z,0.70
2022-08-11T18:27:35.828Z,0.90
2022-08-11T18:29:12.383Z,0.50
2022-08-11T18:30:43.580Z,0.50
2022-08-11T18:32:12.370Z,0.70
2022-08-11T18:34:06.492Z,1.10
2022-08-11T18:35:37.434Z,0.50
2022-08-11T18:37:34.269Z,0.40
2022-08-11T18:39:02.628Z,0.50
2022-08-11T18:40:44.369Z,0.70
2022-08-11T18:42:13.082Z,0.20
2022-08-11T18:43:48.895Z,0.40
2022-08-11T18:45:22.075Z,0.50
2022-08-11T18:46:55.005Z,0.30
2022-08-11T18:48:36.002Z,0.80
2022-08-11T18:50:07.841Z,0.80
2022-08-11T18:51:38.805Z,0.50
2022-08-11T18:53:07.108Z,0.60
2022-08-11T18:54:34.343Z,0.50
2022-08-11T18:56:02.293Z,0.70
2022-08-11T18:57:33.379Z,0.50
2022-08-11T18:59:05.823Z,0.40
2022-08-11T19:00:38.349Z,0.30
2022-08-11T19:02:05.349Z,0.10
2022-08-11T19:03:48.343Z,0.30
2022-08-11T19:05:21.003Z,0.30
2022-08-11T19:07:13.650Z,0.30
2022-08-11T19:08:43.645Z,0.20
2022-08-11T19:10:11.395Z,0.30
2022-08-11T19:11:42.588Z,0.50
2022-08-11T19:13:09.596Z,0.50
2022-08-11T19:14:35.310Z,0.50
2022-08-11T19:16:05.941Z,0.40
2022-08-11T19:17:43.970Z,0.40
2022-08-11T19:19:15.690Z,0.60
2022-08-11T19:20:47.439Z,0.40
2022-08-11T19:22:16.627Z,1.10
2022-08-11T19:23:53.527Z,0.60
2022-08-11T19:25:25.917Z,0.80
2022-08-11T19:26:54.500Z,0.40
2022-08-11T19:28:21.698Z,0.40